Time;durP1;ratioP1;P1;durP2;ratioP2;P2;SDS_P1;SDS_P2;PMS_P1;PMS_P2;Temp;Humidity;BMP_temperature;BMP_pressure;BME280_temperature;BME280_humidity;BME280_pressure;Samples;Min_cycle;Max_cycle;Signal;HPM_P1;HPM_P2
2021/08/10 00:01:10;;;;;;;3.22;2.92;;;15.80;99.90;;;;;;4982407;28;20078;-71
2021/08/10 00:03:38;;;;;;;4.65;3.65;;;15.90;99.90;;;;;;4986800;28;20054;-68
2021/08/10 00:06:05;;;;;;;3.13;2.92;;;15.90;99.90;;;;;;4983386;28;20038;-66
2021/08/10 00:08:32;;;;;;;4.70;3.25;;;15.90;99.90;;;;;;4982200;28;20074;-71
2021/08/10 00:10:59;;;;;;;4.60;2.40;;;15.90;99.90;;;;;;4982896;28;20136;-66
2021/08/10 00:13:26;;;;;;;3.50;3.00;;;15.90;99.90;;;;;;4975615;28;20081;-66
2021/08/10 00:15:53;;;;;;;3.28;3.08;;;15.80;99.90;;;;;;4976344;28;20825;-70
2021/08/10 00:18:20;;;;;;;4.43;4.03;;;15.80;99.90;;;;;;4984205;28;20074;-67
2021/08/10 00:20:49;;;;;;;4.20;3.15;;;15.80;99.90;;;;;;4982750;28;20132;-67
2021/08/10 00:23:17;;;;;;;4.65;3.38;;;15.70;99.90;;;;;;4984514;28;20047;-69
2021/08/10 00:25:46;;;;;;;3.47;3.17;;;15.70;99.90;;;;;;4971438;28;20050;-66
2021/08/10 00:28:14;;;;;;;4.88;3.58;;;15.70;99.90;;;;;;4960770;28;20069;-69
2021/08/10 00:30:42;;;;;;;4.53;4.13;;;15.70;99.90;;;;;;4979879;28;20038;-68
2021/08/10 00:33:09;;;;;;;3.40;3.15;;;15.70;99.90;;;;;;4982478;28;20140;-66
2021/08/10 00:35:36;;;;;;;4.30;3.20;;;15.70;99.90;;;;;;4998916;28;20065;-71
2021/08/10 00:38:04;;;;;;;4.85;3.28;;;15.70;99.90;;;;;;4976756;28;20057;-67
2021/08/10 00:40:33;;;;;;;3.88;3.58;;;15.70;99.90;;;;;;4965864;28;20097;-69
2021/08/10 00:43:02;;;;;;;3.53;3.22;;;15.70;99.90;;;;;;4994908;28;20093;-70
2021/08/10 00:45:30;;;;;;;4.15;3.75;;;15.70;99.90;;;;;;4982102;28;20042;-67
2021/08/10 00:47:58;;;;;;;6.10;3.08;;;15.70;99.90;;;;;;4981721;28;20069;-68
2021/08/10 00:50:28;;;;;;;6.35;5.10;;;15.60;99.90;;;;;;4977268;28;20058;-66
2021/08/10 00:52:55;;;;;;;3.75;3.40;;;15.70;99.90;;;;;;4981660;28;20058;-71
2021/08/10 00:55:23;;;;;;;6.50;4.25;;;15.70;99.90;;;;;;4984665;28;20494;-70
2021/08/10 00:57:52;;;;;;;4.28;3.88;;;15.60;99.90;;;;;;4982058;28;20101;-67
2021/08/10 01:00:21;;;;;;;4.72;4.25;;;15.60;99.90;;;;;;4982549;28;20476;-69
2021/08/10 01:02:48;;;;;;;7.93;4.03;;;15.60;99.90;;;;;;4981072;28;20092;-66
2021/08/10 01:05:17;;;;;;;5.05;4.65;;;15.60;99.90;;;;;;4978079;28;20054;-71
2021/08/10 01:07:53;;;;;;;8.48;3.90;;;15.60;99.90;;;;;;4981857;28;20042;-65
2021/08/10 01:10:28;;;;;;;5.65;3.95;;;15.50;99.90;;;;;;4962027;28;20061;-68
2021/08/10 01:13:08;;;;;;;3.88;3.63;;;15.50;99.90;;;;;;4975215;28;20141;-67
2021/08/10 01:15:45;;;;;;;5.17;3.47;;;15.50;99.90;;;;;;4995621;28;20225;-70
2021/08/10 01:18:15;;;;;;;8.80;4.80;;;15.50;99.90;;;;;;4983532;28;20397;-73
2021/08/10 01:21:08;;;;;;;5.78;4.03;;;15.40;99.90;;;;;;4975153;28;20050;-71
2021/08/10 01:23:38;;;;;;;4.05;3.65;;;15.40;99.90;;;;;;4983733;28;20075;-66
2021/08/10 01:26:26;;;;;;;3.60;3.30;;;15.40;99.90;;;;;;4992839;28;20118;-67
2021/08/10 01:28:53;;;;;;;8.25;4.20;;;15.40;99.90;;;;;;4973474;28;20088;-70
2021/08/10 01:31:28;;;;;;;4.20;3.80;;;15.40;99.90;;;;;;4981479;28;20085;-65
2021/08/10 01:34:10;;;;;;;4.18;3.78;;;15.40;99.90;;;;;;4968635;28;20062;-66
2021/08/10 01:36:40;;;;;;;3.67;3.38;;;15.30;99.90;;;;;;4964510;28;20081;-65
2021/08/10 01:39:08;;;;;;;5.00;4.60;;;15.30;99.90;;;;;;4996733;28;20440;-70
2021/08/10 01:41:45;;;;;;;7.43;6.70;;;15.20;99.90;;;;;;4982105;28;20125;-67
2021/08/10 01:44:15;;;;;;;5.57;3.78;;;15.20;99.90;;;;;;4981707;28;20045;-70
2021/08/10 01:46:46;;;;;;;5.75;3.55;;;15.10;99.90;;;;;;4987417;28;20423;-65
2021/08/10 01:49:13;;;;;;;4.35;3.85;;;15.10;99.90;;;;;;4984237;28;20125;-65
2021/08/10 01:51:41;;;;;;;6.50;3.05;;;15.10;99.90;;;;;;4980067;28;20411;-68
2021/08/10 01:54:10;;;;;;;4.00;3.17;;;15.00;99.90;;;;;;4982759;28;20746;-68
2021/08/10 01:56:37;;;;;;;5.25;3.78;;;15.00;99.90;;;;;;4977666;28;20061;-68
2021/08/10 01:59:06;;;;;;;6.05;2.80;;;14.90;99.90;;;;;;4983347;28;20048;-70
2021/08/10 02:01:38;;;;;;;3.60;3.25;;;14.90;99.90;;;;;;4978063;28;20034;-69
2021/08/10 02:04:06;;;;;;;3.35;3.15;;;14.90;99.90;;;;;;4977751;28;20598;-71
2021/08/10 02:06:35;;;;;;;9.02;4.25;;;14.90;99.90;;;;;;4991396;28;20160;-68
2021/08/10 02:09:06;;;;;;;4.32;3.10;;;14.90;99.90;;;;;;4967679;28;20069;-66
2021/08/10 02:11:35;;;;;;;3.08;2.88;;;14.80;99.90;;;;;;4979510;28;20066;-67
2021/08/10 02:14:08;;;;;;;4.40;3.97;;;14.80;99.90;;;;;;4977895;28;20046;-71
2021/08/10 02:16:37;;;;;;;4.65;3.42;;;14.70;99.90;;;;;;4973786;28;21330;-66
2021/08/10 02:19:08;;;;;;;3.67;2.90;;;14.70;99.90;;;;;;4966818;28;20074;-66
2021/08/10 02:21:45;;;;;;;3.47;3.25;;;14.70;99.90;;;;;;4985523;28;20034;-68
2021/08/10 02:24:21;;;;;;;5.13;3.50;;;14.70;99.90;;;;;;4994074;28;20050;-66
2021/08/10 02:26:58;;;;;;;3.40;3.10;;;14.60;99.90;;;;;;4988258;28;20072;-65
2021/08/10 02:29:31;;;;;;;5.93;2.80;;;14.60;99.90;;;;;;4983447;28;20546;-69
2021/08/10 02:31:59;;;;;;;3.45;3.15;;;14.50;99.90;;;;;;4985686;28;20069;-69
2021/08/10 02:34:30;;;;;;;3.90;2.42;;;14.50;99.90;;;;;;4966631;28;20047;-66
2021/08/10 02:36:59;;;;;;;6.75;3.50;;;14.50;99.90;;;;;;4994387;28;20058;-70
2021/08/10 02:39:29;;;;;;;3.15;2.78;;;14.50;99.90;;;;;;4972151;28;20042;-68
2021/08/10 02:41:57;;;;;;;4.35;3.15;;;14.50;99.90;;;;;;4984240;28;20097;-67
2021/08/10 02:44:25;;;;;;;3.30;2.95;;;14.40;99.90;;;;;;4995910;28;20499;-70
2021/08/10 02:46:54;;;;;;;2.75;2.55;;;14.40;99.90;;;;;;4995573;28;20318;-71
2021/08/10 02:49:21;;;;;;;7.13;3.47;;;14.40;99.90;;;;;;4997667;28;20057;-69
2021/08/10 02:51:48;;;;;;;7.32;3.67;;;14.40;99.90;;;;;;4982206;28;20050;-68
2021/08/10 02:54:17;;;;;;;3.22;2.97;;;14.30;99.90;;;;;;4981333;28;20057;-68
2021/08/10 02:57:09;;;;;;;3.15;2.80;;;14.30;99.90;;;;;;4984249;28;20045;-66
2021/08/10 02:59:50;;;;;;;7.10;2.83;;;14.30;99.90;;;;;;4994716;28;20058;-69
2021/08/10 03:02:19;;;;;;;5.13;3.80;;;14.30;99.90;;;;;;4981100;28;20077;-69
2021/08/10 03:04:53;;;;;;;4.93;3.80;;;14.30;99.90;;;;;;4981777;28;20048;-65
2021/08/10 03:07:22;;;;;;;5.82;2.78;;;14.20;99.90;;;;;;4983563;28;20051;-68
2021/08/10 03:09:52;;;;;;;4.72;3.75;;;14.20;99.90;;;;;;5006080;28;20045;-66
2021/08/10 03:12:22;;;;;;;4.88;3.58;;;14.20;99.90;;;;;;4982567;28;20047;-66
2021/08/10 03:14:51;;;;;;;4.70;3.28;;;14.20;99.90;;;;;;4983633;28;20421;-73
2021/08/10 03:17:21;;;;;;;6.45;4.32;;;14.20;99.90;;;;;;4984212;28;20034;-71
2021/08/10 03:19:50;;;;;;;3.47;3.17;;;14.20;99.90;;;;;;4984428;28;20046;-69
2021/08/10 03:22:18;;;;;;;3.85;3.55;;;14.20;99.90;;;;;;4983674;28;20145;-66
2021/08/10 03:24:47;;;;;;;4.18;3.78;;;14.20;99.90;;;;;;4985145;28;20035;-67
2021/08/10 03:27:14;;;;;;;3.70;3.17;;;14.20;99.90;;;;;;4997767;28;20555;-72
2021/08/10 03:29:42;;;;;;;6.45;3.28;;;14.10;99.90;;;;;;4987985;28;20046;-67
2021/08/10 03:32:14;;;;;;;3.20;3.00;;;14.10;99.90;;;;;;4980826;28;20054;-68
2021/08/10 03:34:43;;;;;;;6.75;3.40;;;14.10;99.90;;;;;;4984024;28;20081;-72
2021/08/10 03:37:11;;;;;;;3.67;3.30;;;14.10;99.90;;;;;;4996332;28;20124;-66
2021/08/10 03:39:39;;;;;;;3.92;3.05;;;14.10;99.90;;;;;;4985725;28;20049;-68
2021/08/10 03:42:08;;;;;;;5.07;3.53;;;14.10;99.90;;;;;;4996320;28;20154;-68
2021/08/10 03:44:41;;;;;;;4.22;3.20;;;14.20;99.90;;;;;;4984686;28;20172;-66
2021/08/10 03:47:11;;;;;;;7.97;4.00;;;14.10;99.90;;;;;;4983607;28;20134;-71
2021/08/10 03:49:38;;;;;;;4.70;3.47;;;14.10;99.90;;;;;;4980409;28;20746;-66
2021/08/10 03:52:06;;;;;;;3.78;3.38;;;14.10;99.90;;;;;;4984568;28;20046;-68
2021/08/10 03:54:33;;;;;;;7.38;4.72;;;14.10;99.90;;;;;;4980909;28;20038;-68
2021/08/10 03:57:00;;;;;;;4.05;3.65;;;14.10;99.90;;;;;;4983167;28;20121;-66
2021/08/10 03:59:33;;;;;;;4.40;4.00;;;14.20;99.90;;;;;;4982105;28;20168;-67
2021/08/10 04:02:02;;;;;;;4.90;3.70;;;14.20;99.90;;;;;;4981731;28;20057;-66
2021/08/10 04:04:30;;;;;;;6.55;3.78;;;14.20;99.90;;;;;;4981981;28;20046;-69
2021/08/10 04:07:03;;;;;;;12.05;4.57;;;14.20;99.90;;;;;;4982836;28;20041;-65
2021/08/10 04:09:34;;;;;;;3.83;3.43;;;14.20;99.90;;;;;;4981578;28;20082;-70
2021/08/10 04:12:05;;;;;;;3.90;3.60;;;14.20;99.90;;;;;;4983409;28;20042;-67
2021/08/10 04:14:35;;;;;;;6.93;3.90;;;14.20;99.90;;;;;;4980528;28;20081;-68
2021/08/10 04:17:06;;;;;;;5.43;3.90;;;14.30;99.90;;;;;;4992583;28;20369;-68
2021/08/10 04:19:45;;;;;;;4.43;3.83;;;14.30;99.90;;;;;;4973376;28;20050;-70
2021/08/10 04:22:14;;;;;;;5.03;4.20;;;14.40;99.90;;;;;;5000504;28;20081;-69
2021/08/10 04:24:44;;;;;;;4.35;3.95;;;14.40;99.90;;;;;;4976087;28;20382;-66
2021/08/10 04:27:13;;;;;;;3.78;3.47;;;14.40;99.90;;;;;;4982857;28;20035;-69
2021/08/10 04:29:40;;;;;;;4.82;3.25;;;14.40;99.90;;;;;;4982196;28;20042;-67
2021/08/10 04:32:09;;;;;;;3.50;3.20;;;14.50;99.90;;;;;;4983850;28;20047;-67
2021/08/10 04:34:40;;;;;;;3.78;3.30;;;14.50;99.90;;;;;;4980168;28;20088;-70
2021/08/10 04:37:07;;;;;;;6.05;3.75;;;14.50;99.90;;;;;;4981550;28;20054;-70
2021/08/10 04:39:38;;;;;;;3.55;3.25;;;14.60;99.90;;;;;;4977706;28;20045;-68
2021/08/10 04:42:08;;;;;;;7.00;4.03;;;14.60;99.90;;;;;;4980923;28;20045;-66
2021/08/10 04:44:35;;;;;;;4.72;3.08;;;14.60;99.90;;;;;;4980470;28;20054;-66
2021/08/10 04:47:03;;;;;;;4.13;3.50;;;14.60;99.90;;;;;;4983427;28;20428;-68
2021/08/10 04:49:32;;;;;;;4.03;3.50;;;14.70;99.90;;;;;;4981873;28;20054;-68
2021/08/10 04:51:59;;;;;;;5.43;3.38;;;14.70;99.90;;;;;;4979816;28;20460;-66
2021/08/10 04:54:26;;;;;;;4.50;4.07;;;14.80;99.90;;;;;;4982121;28;20057;-69
2021/08/10 04:56:53;;;;;;;5.55;4.00;;;14.80;99.90;;;;;;4982008;28;20046;-68
2021/08/10 04:59:20;;;;;;;4.90;4.07;;;14.90;99.90;;;;;;4984267;28;20038;-68
2021/08/10 05:01:47;;;;;;;4.57;4.18;;;15.00;99.90;;;;;;4981288;28;20422;-68
2021/08/10 05:04:14;;;;;;;4.05;3.75;;;15.00;99.90;;;;;;4970668;28;20046;-65
2021/08/10 05:06:42;;;;;;;6.90;3.38;;;15.00;99.90;;;;;;4978434;28;20047;-66
2021/08/10 05:09:09;;;;;;;7.10;4.32;;;15.10;99.90;;;;;;4980739;28;20121;-71
2021/08/10 05:11:37;;;;;;;4.65;3.13;;;15.20;99.90;;;;;;4980302;28;20195;-67
2021/08/10 05:14:04;;;;;;;4.38;2.97;;;15.20;99.90;;;;;;4979071;28;20047;-67
2021/08/10 05:16:34;;;;;;;3.95;3.55;;;15.30;99.90;;;;;;4980573;28;20049;-72
2021/08/10 05:19:01;;;;;;;4.55;3.60;;;15.40;99.90;;;;;;4980113;28;20310;-65
2021/08/10 05:21:33;;;;;;;3.42;3.10;;;15.40;99.90;;;;;;4984105;28;20066;-66
2021/08/10 05:24:00;;;;;;;5.97;3.72;;;15.50;99.90;;;;;;4981255;28;20380;-67
2021/08/10 05:26:28;;;;;;;9.40;4.72;;;15.50;99.90;;;;;;4996210;28;20625;-67
2021/08/10 05:28:57;;;;;;;3.50;3.20;;;15.60;99.90;;;;;;4981417;28;20113;-66
2021/08/10 05:31:24;;;;;;;4.53;3.20;;;15.60;99.90;;;;;;4983786;28;20080;-66
2021/08/10 05:33:51;;;;;;;5.05;3.83;;;15.70;99.90;;;;;;4983194;28;20051;-70
2021/08/10 05:36:21;;;;;;;3.08;2.80;;;15.80;99.90;;;;;;4980614;28;20157;-69
2021/08/10 05:38:50;;;;;;;3.50;2.92;;;15.90;99.90;;;;;;4981406;28;20052;-68
2021/08/10 05:41:18;;;;;;;4.30;3.90;;;15.90;99.90;;;;;;4977344;28;20046;-66
2021/08/10 05:43:46;;;;;;;4.68;3.63;;;16.00;99.90;;;;;;4979907;28;20117;-69
2021/08/10 05:46:13;;;;;;;4.60;3.92;;;16.10;99.90;;;;;;4968183;28;20307;-67
2021/08/10 05:48:40;;;;;;;4.13;3.65;;;16.20;99.90;;;;;;4980541;28;20050;-67
2021/08/10 05:51:09;;;;;;;6.88;4.47;;;16.30;99.90;;;;;;4980576;28;20076;-69
2021/08/10 05:53:37;;;;;;;3.80;3.35;;;16.40;99.90;;;;;;4983611;28;20117;-69
2021/08/10 05:56:07;;;;;;;4.15;2.80;;;16.50;99.90;;;;;;4983649;28;20050;-73
2021/08/10 05:58:35;;;;;;;3.17;2.88;;;16.60;99.90;;;;;;4987438;28;20043;-69
2021/08/10 06:01:04;;;;;;;4.57;3.13;;;16.70;99.90;;;;;;4983907;28;20070;-67
2021/08/10 06:03:33;;;;;;;15.27;2.88;;;16.80;99.90;;;;;;4986345;28;20038;-69
2021/08/10 06:06:01;;;;;;;4.32;2.65;;;16.90;99.90;;;;;;4981424;28;20053;-65
2021/08/10 06:08:38;;;;;;;3.00;1.98;;;16.90;99.90;;;;;;4983661;28;20176;-72
2021/08/10 06:11:04;;;;;;;4.60;2.38;;;17.00;99.90;;;;;;4983877;28;20137;-65
2021/08/10 06:13:36;;;;;;;7.55;3.67;;;17.10;99.90;;;;;;4983676;28;20494;-67
2021/08/10 06:16:04;;;;;;;3.03;2.22;;;17.10;99.90;;;;;;4986849;28;20089;-66
2021/08/10 06:18:31;;;;;;;2.30;2.10;;;17.10;99.90;;;;;;4981938;28;20042;-68
2021/08/10 06:21:02;;;;;;;4.70;2.00;;;17.20;99.90;;;;;;4986279;28;20062;-66
2021/08/10 06:23:29;;;;;;;3.92;2.83;;;17.30;99.90;;;;;;4983688;28;20041;-67
2021/08/10 06:25:55;;;;;;;2.08;1.80;;;17.30;99.90;;;;;;4985554;28;20315;-68
2021/08/10 06:28:27;;;;;;;6.38;2.90;;;17.40;99.90;;;;;;4980873;28;20046;-69
2021/08/10 06:30:58;;;;;;;5.57;1.98;;;17.40;99.90;;;;;;4985838;28;20042;-69
2021/08/10 06:33:26;;;;;;;3.72;2.00;;;17.40;99.90;;;;;;4973986;28;20073;-67
2021/08/10 06:35:53;;;;;;;5.85;2.78;;;17.50;99.90;;;;;;4985379;28;20100;-65
2021/08/10 06:38:22;;;;;;;4.47;2.13;;;17.60;99.90;;;;;;4980480;28;20089;-68
2021/08/10 06:40:49;;;;;;;6.13;3.28;;;17.70;99.90;;;;;;4985865;28;20048;-67
2021/08/10 06:43:18;;;;;;;5.82;2.30;;;17.70;99.90;;;;;;4983095;28;20442;-71
2021/08/10 06:45:45;;;;;;;2.33;2.03;;;17.70;99.90;;;;;;4999397;28;20053;-65
2021/08/10 06:48:14;;;;;;;3.08;2.63;;;17.80;99.90;;;;;;5001110;28;20491;-69
2021/08/10 06:50:41;;;;;;;5.45;2.63;;;17.90;99.90;;;;;;4994405;28;20057;-68
2021/08/10 06:53:08;;;;;;;7.13;2.80;;;17.90;99.90;;;;;;4986175;28;20800;-66
2021/08/10 06:55:47;;;;;;;3.92;3.63;;;17.90;99.90;;;;;;4983843;28;20128;-69
2021/08/10 06:58:15;;;;;;;2.75;2.33;;;18.00;99.90;;;;;;4986176;28;20034;-68
2021/08/10 07:00:43;;;;;;;4.18;2.45;;;18.00;99.90;;;;;;4982501;28;20066;-68
2021/08/10 07:03:10;;;;;;;6.38;3.05;;;18.10;99.90;;;;;;4984029;28;20041;-67
2021/08/10 07:05:38;;;;;;;2.80;2.55;;;18.10;99.90;;;;;;4981963;28;20189;-69
2021/08/10 07:08:06;;;;;;;2.85;1.90;;;18.10;99.90;;;;;;4985749;28;20054;-66
2021/08/10 07:10:38;;;;;;;3.20;2.45;;;18.10;99.90;;;;;;4982749;28;20361;-66
2021/08/10 07:13:05;;;;;;;3.75;2.45;;;18.20;99.90;;;;;;4987835;28;20045;-65
2021/08/10 07:15:34;;;;;;;2.22;2.03;;;18.20;99.90;;;;;;4981822;28;20148;-69
2021/08/10 07:18:07;;;;;;;4.03;2.90;;;18.20;99.90;;;;;;4978394;28;20546;-66
2021/08/10 07:20:34;;;;;;;2.22;2.03;;;18.30;99.90;;;;;;4978962;28;20042;-71
2021/08/10 07:23:05;;;;;;;3.70;3.28;;;18.30;99.90;;;;;;5000151;28;20585;-71
2021/08/10 07:25:39;;;;;;;6.82;2.90;;;18.30;99.90;;;;;;4979522;28;20523;-67
2021/08/10 07:28:06;;;;;;;2.55;2.03;;;18.30;99.90;;;;;;4983843;28;20048;-68
2021/08/10 07:30:34;;;;;;;3.03;2.22;;;18.30;99.90;;;;;;4981023;28;20140;-67
2021/08/10 07:33:01;;;;;;;6.65;2.92;;;18.20;99.90;;;;;;4985049;28;20061;-67
2021/08/10 07:35:30;;;;;;;2.80;2.13;;;18.20;99.90;;;;;;4973902;28;20039;-68
2021/08/10 07:37:59;;;;;;;3.10;2.10;;;18.20;99.90;;;;;;4969280;28;20303;-71
2021/08/10 07:40:29;;;;;;;5.93;2.20;;;18.20;99.90;;;;;;4994545;28;20134;-70
2021/08/10 07:42:56;;;;;;;5.30;3.10;;;18.20;99.90;;;;;;4983835;28;20077;-67
2021/08/10 07:45:23;;;;;;;2.95;2.60;;;18.20;99.90;;;;;;4983872;28;20054;-66
2021/08/10 07:47:50;;;;;;;4.40;2.65;;;18.20;99.90;;;;;;4983664;28;20061;-68
2021/08/10 07:50:19;;;;;;;4.88;2.38;;;18.30;99.90;;;;;;4981831;28;20054;-66
2021/08/10 07:52:48;;;;;;;3.67;1.98;;;18.30;99.90;;;;;;4984280;28;20046;-68
2021/08/10 07:55:15;;;;;;;2.30;1.90;;;18.40;99.90;;;;;;4985804;28;20046;-72
2021/08/10 07:57:43;;;;;;;5.45;2.50;;;18.40;99.90;;;;;;4981171;28;20367;-69
2021/08/10 08:00:12;;;;;;;4.47;2.53;;;18.60;99.90;;;;;;4979438;28;20038;-69
2021/08/10 08:02:45;;;;;;;6.32;2.60;;;18.70;99.90;;;;;;4979798;28;20529;-70
2021/08/10 08:05:12;;;;;;;4.80;2.70;;;18.70;99.90;;;;;;4998830;28;20043;-66
2021/08/10 08:07:39;;;;;;;3.05;2.33;;;18.70;99.90;;;;;;4995200;28;20034;-66
2021/08/10 08:10:10;;;;;;;4.18;2.42;;;18.70;99.90;;;;;;4985920;28;20050;-67
2021/08/10 08:12:39;;;;;;;10.25;2.97;;;18.60;99.90;;;;;;4981254;28;20196;-72
2021/08/10 08:15:07;;;;;;;3.95;2.58;;;18.50;99.90;;;;;;4984333;28;20526;-68
2021/08/10 08:17:34;;;;;;;3.65;2.35;;;18.50;99.90;;;;;;4981211;28;20050;-66
2021/08/10 08:20:17;;;;;;;4.82;2.42;;;18.40;99.90;;;;;;4981305;28;20109;-65
2021/08/10 08:22:46;;;;;;;5.97;2.45;;;18.30;99.90;;;;;;4982907;28;20596;-69
2021/08/10 08:25:14;;;;;;;6.95;1.92;;;18.10;99.90;;;;;;4976327;28;20520;-66
2021/08/10 08:27:41;;;;;;;3.08;2.13;;;17.70;99.90;;;;;;4991379;28;20050;-66
2021/08/10 08:30:09;;;;;;;2.95;1.85;;;17.30;99.90;;;;;;4997260;28;20050;-67
2021/08/10 08:32:37;;;;;;;4.35;2.33;;;16.80;99.90;;;;;;4981842;28;20073;-67
2021/08/10 08:35:05;;;;;;;3.35;2.90;;;16.40;99.90;;;;;;4985673;28;20166;-68
2021/08/10 08:37:34;;;;;;;4.70;2.10;;;16.10;99.90;;;;;;4986780;28;20077;-65
2021/08/10 08:40:01;;;;;;;4.05;2.38;;;16.00;99.90;;;;;;4983516;28;20392;-68
2021/08/10 08:42:29;;;;;;;3.22;1.83;;;15.80;99.90;;;;;;4979407;28;20053;-67
2021/08/10 08:44:56;;;;;;;3.60;2.70;;;15.80;99.90;;;;;;4975917;28;20050;-65
2021/08/10 08:47:23;;;;;;;4.82;3.10;;;15.80;99.90;;;;;;4972218;28;20351;-65
2021/08/10 08:49:58;;;;;;;4.05;2.30;;;15.70;99.90;;;;;;4980872;28;20057;-71
2021/08/10 08:52:29;;;;;;;4.53;3.00;;;15.70;99.90;;;;;;4995051;28;20155;-67
2021/08/10 08:54:58;;;;;;;3.42;2.45;;;15.70;99.90;;;;;;4999391;28;20046;-68
2021/08/10 08:57:25;;;;;;;2.67;2.42;;;15.80;99.90;;;;;;4995229;28;20042;-66
2021/08/10 08:59:52;;;;;;;5.13;3.40;;;15.80;99.90;;;;;;4984298;28;20421;-67
2021/08/10 09:02:19;;;;;;;4.20;2.75;;;15.90;99.90;;;;;;4982011;28;20038;-66
2021/08/10 09:04:49;;;;;;;3.93;2.67;;;15.90;99.90;;;;;;4985138;28;20376;-70
2021/08/10 09:10:59;;;;;;;4.43;2.72;;;16.20;99.90;;;;;;4979791;28;20049;-70
2021/08/10 09:13:30;;;;;;;6.78;2.95;;;16.30;99.90;;;;;;4982503;28;20380;-67
2021/08/10 09:16:08;;;;;;;3.22;2.55;;;16.50;99.90;;;;;;4971472;28;20050;-67
2021/08/10 09:18:38;;;;;;;8.48;5.50;;;16.60;99.90;;;;;;4980192;28;20051;-65
2021/08/10 09:21:15;;;;;;;4.03;3.13;;;16.70;99.90;;;;;;4973780;28;20116;-66
2021/08/10 09:23:52;;;;;;;5.55;2.88;;;16.90;99.90;;;;;;4983975;28;20046;-68
2021/08/10 09:26:30;;;;;;;7.07;4.45;;;17.00;99.90;;;;;;4978706;28;20654;-65
2021/08/10 09:29:00;;;;;;;5.47;3.45;;;17.10;99.90;;;;;;4983004;28;20441;-64
2021/08/10 09:31:53;;;;;;;8.57;3.95;;;17.30;99.90;;;;;;4981814;28;20146;-69
2021/08/10 09:34:28;;;;;;;4.53;3.65;;;17.40;99.90;;;;;;4979949;28;20095;-67
2021/08/10 09:37:15;;;;;;;6.40;5.07;;;17.60;99.90;;;;;;3353300;28;10023463;-69
2021/08/10 09:39:43;;;;;;;3.45;2.78;;;17.60;99.90;;;;;;2570652;28;10001945;-67
2021/08/10 09:42:13;;;;;;;3.58;2.95;;;17.80;99.90;;;;;;4998419;28;20069;-65
2021/08/10 09:44:57;;;;;;;5.60;3.70;;;18.00;99.90;;;;;;4978154;28;20038;-65
2021/08/10 09:47:35;;;;;;;5.35;3.38;;;18.20;99.90;;;;;;4981116;28;20375;-65
2021/08/10 09:50:18;;;;;;;4.88;3.22;;;18.40;99.90;;;;;;4965280;28;20470;-69
2021/08/10 09:52:46;;;;;;;6.47;3.80;;;18.50;99.90;;;;;;4981521;28;20042;-64
2021/08/10 09:55:16;;;;;;;5.50;2.80;;;18.70;99.90;;;;;;4980395;28;20439;-64
2021/08/10 10:01:46;;;;;;;5.97;2.70;;;18.80;99.90;;;;;;4986817;28;20065;-70
2021/08/10 10:04:17;;;;;;;3.67;3.00;;;18.80;99.90;;;;;;4983032;28;20047;-65
2021/08/10 10:06:52;;;;;;;4.75;3.35;;;18.80;99.90;;;;;;4975878;28;20050;-66
2021/08/10 10:09:20;;;;;;;5.82;2.47;;;18.90;99.90;;;;;;4980610;28;20476;-72
2021/08/10 10:11:51;;;;;;;2.88;2.50;;;18.90;99.90;;;;;;4984420;28;20054;-67
2021/08/10 10:14:24;;;;;;;3.83;2.50;;;18.80;99.90;;;;;;4994952;28;20130;-64
2021/08/10 10:16:52;;;;;;;4.50;2.78;;;18.90;99.90;;;;;;4989513;28;20112;-66
2021/08/10 10:19:21;;;;;;;4.07;1.88;;;19.00;99.90;;;;;;4985342;28;20047;-72
2021/08/10 10:21:52;;;;;;;4.53;2.67;;;19.10;99.90;;;;;;4982256;28;20128;-66
2021/08/10 10:24:21;;;;;;;6.60;2.80;;;19.40;99.90;;;;;;4980439;28;20535;-68
2021/08/10 10:26:57;;;;;;;2.70;1.92;;;19.50;99.90;;;;;;4983113;28;20046;-67
2021/08/10 10:29:26;;;;;;;2.92;2.28;;;19.70;99.90;;;;;;4991091;28;20046;-69
2021/08/10 10:31:53;;;;;;;3.08;2.10;;;19.80;99.90;;;;;;4981316;28;20038;-71
2021/08/10 10:34:20;;;;;;;7.35;3.45;;;19.90;99.90;;;;;;4990764;28;20077;-64
2021/08/10 10:36:49;;;;;;;2.47;2.28;;;19.90;99.90;;;;;;4977695;28;20102;-66
2021/08/10 10:39:28;;;;;;;3.25;2.10;;;20.10;99.90;;;;;;4973201;28;20054;-71
2021/08/10 10:41:58;;;;;;;7.40;2.50;;;20.20;99.90;;;;;;4983548;28;20081;-64
2021/08/10 10:44:52;;;;;;;3.03;2.30;;;20.10;99.90;;;;;;4982832;28;20128;-66
2021/08/10 10:47:25;;;;;;;2.20;2.00;;;20.00;99.90;;;;;;4987772;28;20284;-73
2021/08/10 10:49:58;;;;;;;2.90;1.90;;;20.00;99.90;;;;;;4979935;28;20133;-66
2021/08/10 10:52:30;;;;;;;2.95;1.77;;;20.00;99.90;;;;;;4985245;28;20046;-65
2021/08/10 10:54:59;;;;;;;3.50;2.22;;;20.10;99.90;;;;;;4979141;28;20047;-65
2021/08/10 10:57:33;;;;;;;2.83;2.03;;;20.20;99.90;;;;;;4980237;28;20069;-67
2021/08/10 11:00:12;;;;;;;2.35;1.80;;;20.50;99.90;;;;;;4973128;28;20078;-64
2021/08/10 11:02:39;;;;;;;2.38;1.98;;;20.70;99.90;;;;;;4976627;28;20516;-69
2021/08/10 11:05:12;;;;;;;6.40;2.78;;;20.80;99.90;;;;;;4987199;28;20038;-73
2021/08/10 11:07:54;;;;;;;3.97;1.80;;;20.90;99.90;;;;;;4984200;28;20669;-70
2021/08/10 11:10:44;;;;;;;3.10;1.50;;;21.00;99.90;;;;;;4986563;28;20054;-64
2021/08/10 11:13:16;;;;;;;2.88;2.67;;;21.00;99.90;;;;;;4984296;28;20136;-70
2021/08/10 11:15:46;;;;;;;3.08;2.42;;;21.10;99.90;;;;;;4987546;28;20384;-65
2021/08/10 11:18:13;;;;;;;4.00;2.00;;;21.30;99.90;;;;;;4975384;28;20055;-65
2021/08/10 11:20:47;;;;;;;3.53;1.90;;;21.40;99.90;;;;;;4979468;28;20478;-65
2021/08/10 11:23:26;;;;;;;4.80;2.65;;;21.40;99.90;;;;;;4981559;28;20093;-69
2021/08/10 11:25:59;;;;;;;3.75;1.40;;;21.30;99.90;;;;;;4981503;28;20408;-65
2021/08/10 11:28:32;;;;;;;3.97;1.80;;;21.30;99.90;;;;;;4985043;28;20550;-65
2021/08/10 11:31:07;;;;;;;4.63;2.90;;;21.40;99.90;;;;;;4986651;28;20046;-65
2021/08/10 11:33:36;;;;;;;4.35;2.47;;;21.40;99.90;;;;;;4981652;28;20054;-68
2021/08/10 11:36:12;;;;;;;2.92;1.92;;;21.40;99.90;;;;;;4984956;28;20070;-69
2021/08/10 11:38:47;;;;;;;5.20;3.28;;;21.40;99.90;;;;;;4984513;28;20153;-64
2021/08/10 11:41:16;;;;;;;7.45;3.10;;;21.40;99.90;;;;;;4982371;28;20069;-67
2021/08/10 11:43:49;;;;;;;2.35;1.40;;;21.50;99.90;;;;;;4983803;28;20693;-68
2021/08/10 11:46:20;;;;;;;2.75;1.48;;;21.70;99.90;;;;;;4986273;28;20042;-65
2021/08/10 11:48:53;;;;;;;3.47;1.70;;;21.80;99.90;;;;;;4984164;28;20145;-67
2021/08/10 11:51:24;;;;;;;2.78;1.55;;;21.90;99.90;;;;;;4982982;28;20109;-65
2021/08/10 11:53:53;;;;;;;1.42;1.33;;;21.90;99.90;;;;;;4982415;28;20101;-66
2021/08/10 11:56:32;;;;;;;2.30;1.50;;;21.80;99.90;;;;;;4985509;28;20124;-71
2021/08/10 11:59:01;;;;;;;3.22;1.92;;;21.90;99.90;;;;;;4984084;28;20128;-67
2021/08/10 12:01:31;;;;;;;2.08;1.73;;;21.90;99.90;;;;;;4984828;28;20042;-67
2021/08/10 12:04:18;;;;;;;7.18;2.00;;;21.90;99.90;;;;;;4983078;28;20050;-64
2021/08/10 12:06:48;;;;;;;2.90;1.30;;;22.00;99.90;;;;;;4981460;28;20057;-70
2021/08/10 12:09:17;;;;;;;2.67;1.45;;;22.20;99.90;;;;;;4980404;28;20073;-66
2021/08/10 12:11:47;;;;;;;2.30;1.37;;;22.40;99.90;;;;;;4983526;28;20034;-66
2021/08/10 12:14:16;;;;;;;;;;;22.20;99.90;;;;;;4986768;28;20044;-69
2021/08/10 12:17:00;;;;;;;3.10;2.28;;;22.00;99.90;;;;;;4973471;28;19918;-65
2021/08/10 12:19:49;;;;;;;2.50;1.30;;;21.90;99.90;;;;;;4981246;28;20066;-69
2021/08/10 12:22:19;;;;;;;4.82;1.05;;;22.00;99.90;;;;;;4981768;28;20053;-67
2021/08/10 12:24:47;;;;;;;3.20;1.35;;;22.00;99.90;;;;;;4971741;28;20055;-65
2021/08/10 12:27:16;;;;;;;1.70;1.55;;;22.00;99.90;;;;;;4978509;28;20105;-70
2021/08/10 12:29:46;;;;;;;2.70;1.38;;;22.00;99.90;;;;;;4985842;28;20642;-66
2021/08/10 12:32:30;;;;;;;2.13;1.40;;;22.20;99.90;;;;;;4982492;28;20042;-66
2021/08/10 12:35:15;;;;;;;3.50;1.33;;;22.10;99.90;;;;;;4980927;28;20097;-66
2021/08/10 12:37:42;;;;;;;3.13;1.67;;;22.20;99.90;;;;;;4980886;28;20050;-65
2021/08/10 12:40:18;;;;;;;2.72;1.60;;;22.20;99.90;;;;;;4983883;28;20068;-65
2021/08/10 12:42:45;;;;;;;1.98;1.63;;;22.20;99.90;;;;;;4971640;28;20050;-64
2021/08/10 12:45:13;;;;;;;3.35;1.45;;;22.20;99.90;;;;;;4978755;28;20124;-65
2021/08/10 12:47:43;;;;;;;3.55;1.15;;;22.30;99.90;;;;;;4984681;28;20057;-64
2021/08/10 12:50:30;;;;;;;3.08;1.48;;;22.30;99.90;;;;;;4979306;28;20423;-66
2021/08/10 12:52:59;;;;;;;2.72;1.48;;;22.50;99.90;;;;;;4983911;28;20052;-69
2021/08/10 12:55:26;;;;;;;2.42;1.48;;;22.50;99.90;;;;;;4980630;28;20046;-66
2021/08/10 12:58:03;;;;;;;5.05;1.90;;;22.60;99.90;;;;;;4985786;28;20038;-67
2021/08/10 13:00:30;;;;;;;1.77;1.40;;;22.60;99.90;;;;;;4984476;28;20471;-66
2021/08/10 13:02:57;;;;;;;1.73;1.20;;;22.70;99.90;;;;;;4984489;28;20062;-65
2021/08/10 13:05:36;;;;;;;6.63;1.83;;;22.70;99.90;;;;;;4963828;28;20050;-67
2021/08/10 13:08:08;;;;;;;2.33;1.52;;;22.80;99.90;;;;;;4978141;28;20424;-65
2021/08/10 13:10:41;;;;;;;1.55;1.05;;;22.80;99.90;;;;;;4983416;28;20050;-65
2021/08/10 13:13:28;;;;;;;3.95;1.08;;;22.70;99.90;;;;;;4984515;28;20046;-69